Time;durP1;ratioP1;P1;durP2;ratioP2;P2;SDS_P1;SDS_P2;PMS_P1;PMS_P2;Temp;Humidity;BMP_temperature;BMP_pressure;BME280_temperature;BME280_humidity;BME280_pressure;Samples;Min_cycle;Max_cycle;Signal;HPM_P1;HPM_P2
2023/05/08 00:00:59;;;;;;;14.07;11.23;;;7.90;99.90;;;;;;2105756;28;20028;-70
2023/05/08 00:02:00;;;;;;;14.60;11.13;;;7.90;99.90;;;;;;2096154;28;20525;-70
2023/05/08 00:03:00;;;;;;;13.40;10.98;;;7.90;99.90;;;;;;2098876;28;20054;-70
2023/05/08 00:04:01;;;;;;;13.77;11.23;;;7.90;99.90;;;;;;2091960;28;20033;-70
2023/05/08 00:05:02;;;;;;;13.30;10.52;;;7.90;99.90;;;;;;2102421;28;20027;-71
2023/05/08 00:06:04;;;;;;;12.38;10.77;;;7.90;99.90;;;;;;2103386;28;20040;-70
2023/05/08 00:07:05;;;;;;;12.65;11.07;;;7.90;99.90;;;;;;2101631;28;20407;-70
2023/05/08 00:08:06;;;;;;;15.77;12.07;;;7.80;99.90;;;;;;2089303;28;20250;-70
2023/05/08 00:09:06;;;;;;;16.50;12.57;;;7.80;99.90;;;;;;2097409;28;20399;-69
2023/05/08 00:10:08;;;;;;;16.80;12.13;;;7.80;99.90;;;;;;2102752;28;20059;-70
2023/05/08 00:11:09;;;;;;;17.55;12.75;;;7.80;99.90;;;;;;2099658;28;20230;-71
2023/05/08 00:12:10;;;;;;;15.32;11.45;;;7.80;99.90;;;;;;2093109;28;20102;-69
2023/05/08 00:13:10;;;;;;;15.23;12.25;;;7.80;99.90;;;;;;2093868;28;20713;-70
2023/05/08 00:14:11;;;;;;;16.10;11.98;;;7.80;99.90;;;;;;2094124;28;20092;-70
2023/05/08 00:15:11;;;;;;;18.63;12.57;;;7.80;99.90;;;;;;2095103;28;20339;-70
2023/05/08 00:16:12;;;;;;;17.13;12.77;;;7.70;99.90;;;;;;2100376;28;20123;-71
2023/05/08 00:17:12;;;;;;;16.48;12.57;;;7.70;99.90;;;;;;2101414;28;20541;-70
2023/05/08 00:18:13;;;;;;;17.83;13.27;;;7.70;99.90;;;;;;2097217;28;20058;-70
2023/05/08 00:19:14;;;;;;;17.65;13.00;;;7.70;99.90;;;;;;2099300;28;20066;-71
2023/05/08 00:20:14;;;;;;;17.45;13.07;;;7.70;99.90;;;;;;2090912;28;20025;-71
2023/05/08 00:21:15;;;;;;;16.27;13.13;;;7.60;99.90;;;;;;2091158;28;20034;-71
2023/05/08 00:22:15;;;;;;;16.95;12.90;;;7.60;99.90;;;;;;2088400;28;20055;-71
2023/05/08 00:23:16;;;;;;;17.45;12.52;;;7.60;99.90;;;;;;2095493;28;20035;-71
2023/05/08 00:24:16;;;;;;;15.25;12.60;;;7.60;99.90;;;;;;2099013;28;20428;-70
2023/05/08 00:25:17;;;;;;;17.88;13.15;;;7.60;99.90;;;;;;2091209;28;20482;-71
2023/05/08 00:26:17;;;;;;;17.30;12.73;;;7.60;99.90;;;;;;2092178;28;20454;-71
2023/05/08 00:27:18;;;;;;;16.33;12.88;;;7.60;99.90;;;;;;2100300;28;20398;-72
2023/05/08 00:28:19;;;;;;;17.77;12.77;;;7.50;99.90;;;;;;2096666;28;20559;-70
2023/05/08 00:29:20;;;;;;;17.17;12.82;;;7.50;99.90;;;;;;2097037;28;20043;-70
2023/05/08 00:30:21;;;;;;;18.17;13.18;;;7.50;99.90;;;;;;2099502;28;20474;-70
2023/05/08 00:31:22;;;;;;;17.00;12.40;;;7.50;99.90;;;;;;2099436;28;20046;-71
2023/05/08 00:32:23;;;;;;;15.10;12.25;;;7.50;99.90;;;;;;2098066;28;20431;-71
2023/05/08 00:33:24;;;;;;;16.92;12.52;;;7.50;99.90;;;;;;2093820;28;20313;-70
2023/05/08 00:34:24;;;;;;;16.60;12.25;;;7.50;99.90;;;;;;2092529;28;20093;-70
2023/05/08 00:35:25;;;;;;;14.63;11.85;;;7.50;99.90;;;;;;2090864;28;20032;-70
2023/05/08 00:36:26;;;;;;;14.85;12.00;;;7.50;99.90;;;;;;2089285;28;20367;-70
2023/05/08 00:37:26;;;;;;;14.50;11.75;;;7.50;99.90;;;;;;2098578;28;20027;-71
2023/05/08 00:38:35;;;;;;;14.38;12.10;;;7.40;99.90;;;;;;2095559;28;20076;-71
2023/05/08 00:39:36;;;;;;;15.45;12.68;;;7.40;99.90;;;;;;2100555;28;20032;-71
2023/05/08 00:40:36;;;;;;;15.27;11.82;;;7.40;99.90;;;;;;2099439;28;20028;-72
2023/05/08 00:41:37;;;;;;;13.98;12.07;;;7.40;99.90;;;;;;2090950;28;20068;-71
2023/05/08 00:42:38;;;;;;;14.70;12.20;;;7.40;99.90;;;;;;2093863;28;20462;-70
2023/05/08 00:43:39;;;;;;;15.32;12.00;;;7.40;99.90;;;;;;2091514;28;20554;-71
2023/05/08 00:44:40;;;;;;;14.63;12.13;;;7.40;99.90;;;;;;2090399;28;20032;-71
2023/05/08 00:45:41;;;;;;;14.52;11.88;;;7.40;99.90;;;;;;2088077;28;20115;-71
2023/05/08 00:46:42;;;;;;;14.30;11.65;;;7.40;99.90;;;;;;2092816;28;20027;-71
2023/05/08 00:47:43;;;;;;;14.57;12.20;;;7.30;99.90;;;;;;2104689;28;20032;-71
2023/05/08 00:48:45;;;;;;;14.20;11.73;;;7.30;99.90;;;;;;2098761;28;20634;-71
2023/05/08 00:49:46;;;;;;;14.07;11.70;;;7.30;99.90;;;;;;2096242;28;20075;-72
2023/05/08 00:50:47;;;;;;;14.55;11.70;;;7.30;99.90;;;;;;2094952;28;20025;-72
2023/05/08 00:51:52;;;;;;;13.88;11.55;;;7.30;99.90;;;;;;2092767;28;20677;-71
2023/05/08 00:52:53;;;;;;;15.45;11.95;;;7.30;99.90;;;;;;2092530;28;20460;-72
2023/05/08 00:53:54;;;;;;;14.05;11.80;;;7.30;99.90;;;;;;2084505;28;20790;-71
2023/05/08 00:54:55;;;;;;;15.75;12.05;;;7.30;99.90;;;;;;2078951;28;20025;-71
2023/05/08 00:55:57;;;;;;;13.82;11.50;;;7.30;99.90;;;;;;2089164;28;20028;-71
2023/05/08 00:56:58;;;;;;;14.38;11.77;;;7.30;99.90;;;;;;2092245;28;20036;-71
2023/05/08 00:57:59;;;;;;;14.60;12.23;;;7.30;99.90;;;;;;2086392;28;20032;-71
2023/05/08 00:59:00;;;;;;;15.68;12.35;;;7.30;99.90;;;;;;2095199;28;20570;-71
2023/05/08 01:00:04;;;;;;;14.50;11.82;;;7.30;99.90;;;;;;2100757;28;20499;-71
2023/05/08 01:01:04;;;;;;;14.80;12.07;;;7.20;99.90;;;;;;2095335;28;20086;-72
2023/05/08 01:02:06;;;;;;;14.30;12.13;;;7.20;99.90;;;;;;2101403;27;20028;-71
2023/05/08 01:03:08;;;;;;;14.57;12.20;;;7.20;99.90;;;;;;2096057;28;20036;-71
2023/05/08 01:04:09;;;;;;;13.15;11.75;;;7.20;99.90;;;;;;2096029;28;20032;-70
2023/05/08 01:05:10;;;;;;;13.98;11.65;;;7.20;99.90;;;;;;2089190;28;20063;-71
2023/05/08 01:06:11;;;;;;;14.07;11.90;;;7.20;99.90;;;;;;2087079;28;20071;-70
2023/05/08 01:07:11;;;;;;;13.70;11.88;;;7.20;99.90;;;;;;2101317;28;20078;-71
2023/05/08 01:08:12;;;;;;;15.07;11.82;;;7.20;99.90;;;;;;2098540;28;20025;-71
2023/05/08 01:09:12;;;;;;;12.68;11.00;;;7.20;99.90;;;;;;2094421;28;20055;-71
2023/05/08 01:10:13;;;;;;;15.05;12.15;;;7.20;99.90;;;;;;2095965;28;20040;-70
2023/05/08 01:11:37;;;;;;;13.60;12.05;;;7.20;99.90;;;;;;2100512;28;20055;-71
2023/05/08 01:12:46;;;;;;;14.00;11.60;;;7.20;99.90;;;;;;2092941;28;20529;-71
2023/05/08 01:13:55;;;;;;;13.57;11.50;;;7.20;99.90;;;;;;2093091;28;20036;-71
2023/05/08 01:15:03;;;;;;;13.82;11.40;;;7.20;99.90;;;;;;2092312;28;20027;-71
2023/05/08 01:16:14;;;;;;;14.45;11.60;;;7.20;99.90;;;;;;2092928;28;20536;-71
2023/05/08 01:17:35;;;;;;;13.80;11.73;;;7.20;99.90;;;;;;2095786;28;20072;-70
2023/05/08 01:18:40;;;;;;;;;;;7.20;99.90;;;;;;2096801;28;20115;-70
2023/05/08 01:19:59;;;;;;;14.77;11.80;;;7.20;99.90;;;;;;2101734;28;19922;-70
2023/05/08 01:21:11;;;;;;;13.75;12.02;;;7.10;99.90;;;;;;2100152;28;20020;-70
2023/05/08 01:22:44;;;;;;;14.98;12.10;;;7.10;99.90;;;;;;2092922;28;20028;-70
2023/05/08 01:24:04;;;;;;;16.90;12.52;;;7.10;99.90;;;;;;2093829;28;20086;-71
2023/05/08 01:25:39;;;;;;;14.35;12.25;;;7.10;99.90;;;;;;2106043;28;20042;-71
2023/05/08 01:27:05;;;;;;;15.05;12.13;;;7.10;99.90;;;;;;2092987;28;20090;-71
2023/05/08 01:28:17;;;;;;;14.13;12.05;;;7.00;99.90;;;;;;2093447;28;20021;-71
2023/05/08 01:29:46;;;;;;;15.98;12.48;;;7.00;99.90;;;;;;2096240;28;20245;-70
2023/05/08 01:31:17;;;;;;;15.10;12.20;;;7.00;99.90;;;;;;2093914;28;20438;-71
2023/05/08 01:32:39;;;;;;;14.35;12.07;;;6.90;99.90;;;;;;2095295;28;20430;-70
2023/05/08 01:33:48;;;;;;;13.43;11.50;;;7.00;99.90;;;;;;2090101;28;20048;-70
2023/05/08 01:34:56;;;;;;;13.60;11.70;;;6.90;99.90;;;;;;2099929;28;20054;-70
2023/05/08 01:36:03;;;;;;;15.30;12.05;;;6.90;99.90;;;;;;2094583;28;20031;-70
2023/05/08 01:37:10;;;;;;;14.93;12.18;;;6.90;99.90;;;;;;2097298;28;20111;-71
2023/05/08 01:38:34;;;;;;;13.60;11.82;;;6.90;99.90;;;;;;2094136;28;20478;-70
2023/05/08 01:39:46;;;;;;;14.15;11.70;;;6.90;99.90;;;;;;2095804;28;20487;-70
2023/05/08 01:41:02;;;;;;;15.50;12.48;;;6.90;99.90;;;;;;2092656;28;20035;-71
2023/05/08 01:42:20;;;;;;;14.40;11.82;;;6.90;99.90;;;;;;2099937;28;20359;-70
2023/05/08 01:43:37;;;;;;;13.90;11.82;;;6.90;99.90;;;;;;2094492;28;20498;-72
2023/05/08 01:44:44;;;;;;;14.75;11.57;;;6.90;99.90;;;;;;2098258;28;20024;-70
2023/05/08 01:45:47;;;;;;;15.27;12.10;;;6.90;99.90;;;;;;2099578;28;20024;-71
2023/05/08 01:46:49;;;;;;;15.88;12.65;;;6.90;99.90;;;;;;2090605;28;20328;-71
2023/05/08 01:48:06;;;;;;;14.82;12.52;;;6.80;99.90;;;;;;2089554;28;20032;-71
2023/05/08 01:49:13;;;;;;;15.25;12.30;;;6.80;99.90;;;;;;2092050;28;20044;-70
2023/05/08 01:50:18;;;;;;;14.90;12.55;;;6.80;99.90;;;;;;2093429;28;20070;-70
2023/05/08 01:51:22;;;;;;;14.23;12.35;;;6.80;99.90;;;;;;2092663;28;20036;-70
2023/05/08 01:52:41;;;;;;;14.55;12.38;;;6.80;99.90;;;;;;2091575;28;20051;-71
2023/05/08 01:53:46;;;;;;;15.23;12.80;;;6.80;99.90;;;;;;2101457;28;20028;-71
2023/05/08 01:54:59;;;;;;;16.13;12.57;;;6.80;99.90;;;;;;2089951;28;20071;-71
2023/05/08 01:56:06;;;;;;;16.35;12.45;;;6.80;99.90;;;;;;2093115;28;20556;-71
2023/05/08 01:57:09;;;;;;;15.18;12.60;;;6.70;99.90;;;;;;2085943;28;20040;-71
2023/05/08 01:58:11;;;;;;;16.23;13.20;;;6.70;99.90;;;;;;2090574;28;20127;-71
2023/05/08 01:59:18;;;;;;;15.63;12.88;;;6.70;99.90;;;;;;2086351;28;20188;-71
2023/05/08 02:00:21;;;;;;;15.63;13.02;;;6.70;99.90;;;;;;2097627;28;20134;-70
2023/05/08 02:01:25;;;;;;;15.10;12.95;;;6.80;99.90;;;;;;2092910;28;20032;-71
2023/05/08 02:02:28;;;;;;;16.88;12.63;;;6.70;99.90;;;;;;2092889;28;20143;-71
2023/05/08 02:03:32;;;;;;;15.52;13.35;;;6.70;99.90;;;;;;2092501;28;20514;-71
2023/05/08 02:04:34;;;;;;;16.42;13.20;;;6.80;99.90;;;;;;2091102;28;20078;-71
2023/05/08 02:05:39;;;;;;;14.95;12.65;;;6.80;99.90;;;;;;2094544;28;20621;-71
2023/05/08 02:06:40;;;;;;;16.02;13.13;;;6.80;99.90;;;;;;2089670;28;20518;-71
2023/05/08 02:07:42;;;;;;;15.20;12.82;;;6.80;99.90;;;;;;2095199;28;20144;-71
2023/05/08 02:08:45;;;;;;;15.98;13.20;;;6.70;99.90;;;;;;2094402;28;20024;-71
2023/05/08 02:09:47;;;;;;;17.05;13.45;;;6.80;99.90;;;;;;2097721;28;20019;-71
2023/05/08 02:10:50;;;;;;;15.88;12.90;;;6.80;99.90;;;;;;2091752;28;20531;-70
2023/05/08 02:11:54;;;;;;;15.77;13.25;;;6.80;99.90;;;;;;2090082;28;20025;-71
2023/05/08 02:12:55;;;;;;;16.17;13.18;;;6.70;99.90;;;;;;2092511;28;20032;-70
2023/05/08 02:13:59;;;;;;;15.57;13.00;;;6.70;99.90;;;;;;2087455;28;20039;-70
2023/05/08 02:15:01;;;;;;;16.92;13.50;;;6.70;99.90;;;;;;2091354;28;20470;-71
2023/05/08 02:16:02;;;;;;;16.75;13.20;;;6.70;99.90;;;;;;2092640;28;20523;-72
2023/05/08 02:17:05;;;;;;;16.08;13.30;;;6.70;99.90;;;;;;2088160;28;20035;-71
2023/05/08 02:18:07;;;;;;;18.50;14.15;;;6.70;99.90;;;;;;2107791;27;20114;-71
2023/05/08 02:19:10;;;;;;;17.15;13.77;;;6.70;99.90;;;;;;2103668;28;20444;-71
2023/05/08 02:20:13;;;;;;;15.85;13.07;;;6.70;99.90;;;;;;2082756;28;20483;-71
2023/05/08 02:21:14;;;;;;;15.90;13.40;;;6.70;99.90;;;;;;2085347;28;20447;-71
2023/05/08 02:22:17;;;;;;;17.58;13.40;;;6.70;99.90;;;;;;2096017;28;20056;-71
2023/05/08 02:23:18;;;;;;;16.50;13.60;;;6.70;99.90;;;;;;2090873;28;20033;-70
2023/05/08 02:24:20;;;;;;;14.60;12.63;;;6.70;99.90;;;;;;2087455;28;20024;-71
2023/05/08 02:25:22;;;;;;;15.15;12.77;;;6.60;99.90;;;;;;2100182;28;20031;-71
2023/05/08 02:26:24;;;;;;;16.40;13.70;;;6.60;99.90;;;;;;2090716;28;20032;-70
2023/05/08 02:27:27;;;;;;;15.70;13.20;;;6.60;99.90;;;;;;2096358;28;20334;-71
2023/05/08 02:28:29;;;;;;;15.52;13.23;;;6.60;99.90;;;;;;2091333;28;20047;-70
2023/05/08 02:29:33;;;;;;;15.65;13.57;;;6.60;99.90;;;;;;2093208;28;20413;-71
2023/05/08 02:30:34;;;;;;;16.08;13.32;;;6.60;99.90;;;;;;2095539;28;20024;-70
2023/05/08 02:31:36;;;;;;;18.50;13.93;;;6.60;99.90;;;;;;2095238;28;20039;-71
2023/05/08 02:32:37;;;;;;;18.00;13.90;;;6.60;99.90;;;;;;2098794;28;20028;-71
2023/05/08 02:33:41;;;;;;;16.02;13.63;;;6.50;99.90;;;;;;2098072;28;20055;-70
2023/05/08 02:34:42;;;;;;;16.92;13.98;;;6.50;99.90;;;;;;2098684;28;20027;-71
2023/05/08 02:35:44;;;;;;;16.38;13.45;;;6.50;99.90;;;;;;2095578;28;20163;-70
2023/05/08 02:36:46;;;;;;;16.73;13.50;;;6.50;99.90;;;;;;2092073;28;20033;-70
2023/05/08 02:37:51;;;;;;;17.73;13.77;;;6.50;99.90;;;;;;2101616;28;20035;-71
2023/05/08 02:38:54;;;;;;;21.52;14.52;;;6.40;99.90;;;;;;2096717;28;20085;-71
2023/05/08 02:39:57;;;;;;;17.15;13.70;;;6.40;99.90;;;;;;2098079;28;20016;-73
2023/05/08 02:41:00;;;;;;;16.92;13.80;;;6.40;99.90;;;;;;2096443;28;20380;-71
2023/05/08 02:42:02;;;;;;;16.10;13.45;;;6.40;99.90;;;;;;2099978;28;20502;-71
2023/05/08 02:43:04;;;;;;;18.05;13.90;;;6.40;99.90;;;;;;2102261;28;20047;-71
2023/05/08 02:44:05;;;;;;;17.63;13.65;;;6.40;99.90;;;;;;2092821;28;20518;-71
2023/05/08 02:45:06;;;;;;;18.05;13.60;;;6.40;99.90;;;;;;2096345;28;20016;-71
2023/05/08 02:46:26;;;;;;;16.05;13.43;;;6.30;99.90;;;;;;2088954;28;20036;-72
2023/05/08 02:47:33;;;;;;;17.10;13.45;;;6.30;99.90;;;;;;2090297;28;20087;-71
2023/05/08 02:48:39;;;;;;;17.20;13.95;;;6.30;99.90;;;;;;2093323;28;20365;-71
2023/05/08 02:49:55;;;;;;;17.42;13.90;;;6.30;99.90;;;;;;2090772;28;20740;-72
2023/05/08 02:50:59;;;;;;;17.15;13.57;;;6.30;99.90;;;;;;2088172;28;20020;-71
2023/05/08 02:52:13;;;;;;;19.33;13.43;;;6.30;99.90;;;;;;2081398;28;20364;-71
2023/05/08 02:53:23;;;;;;;15.73;12.75;;;6.30;99.90;;;;;;2086311;28;20397;-71
2023/05/08 02:54:36;;;;;;;16.02;13.20;;;6.40;99.90;;;;;;2094202;28;20115;-71
2023/05/08 02:55:49;;;;;;;17.48;13.40;;;6.30;99.90;;;;;;2090533;28;20025;-72
2023/05/08 02:57:00;;;;;;;17.42;13.68;;;6.30;99.90;;;;;;2094588;28;20020;-71
2023/05/08 02:58:19;;;;;;;16.58;13.52;;;6.30;99.90;;;;;;2090064;28;20036;-71
2023/05/08 02:59:27;;;;;;;16.42;13.77;;;6.30;99.90;;;;;;2094962;28;20054;-71
2023/05/08 03:00:31;;;;;;;17.17;13.05;;;6.30;99.90;;;;;;2100010;28;20028;-71
2023/05/08 03:01:48;;;;;;;17.13;13.45;;;6.30;99.90;;;;;;2091015;28;20036;-71
2023/05/08 03:03:06;;;;;;;16.73;13.77;;;6.30;99.90;;;;;;2086951;28;20111;-70
2023/05/08 03:04:09;;;;;;;18.23;14.05;;;6.30;99.90;;;;;;2093408;28;20513;-71
2023/05/08 03:05:19;;;;;;;16.92;14.02;;;6.20;99.90;;;;;;2099255;28;20024;-71
2023/05/08 03:06:25;;;;;;;18.25;14.13;;;6.30;99.90;;;;;;2095265;28;20147;-70
2023/05/08 03:07:27;;;;;;;16.92;13.77;;;6.20;99.90;;;;;;2093167;28;20032;-70
2023/05/08 03:08:34;;;;;;;16.20;13.50;;;6.20;99.90;;;;;;2085656;28;20028;-70
2023/05/08 03:09:46;;;;;;;20.15;14.73;;;6.20;99.90;;;;;;2098831;28;20155;-70
2023/05/08 03:10:51;;;;;;;17.25;14.25;;;6.20;99.90;;;;;;2095981;28;20454;-71
2023/05/08 03:12:02;;;;;;;19.17;14.50;;;6.20;99.90;;;;;;2098216;28;20025;-70
2023/05/08 03:13:07;;;;;;;18.65;14.65;;;6.20;99.90;;;;;;2091226;28;20482;-69
2023/05/08 03:14:14;;;;;;;17.05;13.85;;;6.20;99.90;;;;;;2098051;28;20051;-77
2023/05/08 03:15:26;;;;;;;17.02;13.82;;;6.10;99.90;;;;;;2102240;28;20031;-77
2023/05/08 03:16:32;;;;;;;16.65;13.45;;;6.10;99.90;;;;;;2093824;28;20301;-75
2023/05/08 03:17:35;;;;;;;18.15;14.07;;;6.10;99.90;;;;;;2098239;28;20069;-70
2023/05/08 03:18:48;;;;;;;17.33;14.18;;;6.10;99.90;;;;;;2090074;28;20035;-69
2023/05/08 03:19:53;;;;;;;18.42;14.23;;;6.10;99.90;;;;;;2095425;28;20040;-69
2023/05/08 03:20:58;;;;;;;18.50;14.30;;;6.10;99.90;;;;;;2088361;28;20103;-68
2023/05/08 03:22:00;;;;;;;16.95;13.95;;;6.10;99.90;;;;;;2091282;28;20085;-68
2023/05/08 03:23:03;;;;;;;17.40;14.00;;;6.10;99.90;;;;;;2100283;28;20020;-69
2023/05/08 03:24:06;;;;;;;17.65;14.10;;;6.10;99.90;;;;;;2096279;28;20377;-69
2023/05/08 03:25:09;;;;;;;18.15;14.15;;;6.10;99.90;;;;;;2096570;28;20070;-69
2023/05/08 03:26:11;;;;;;;17.42;13.82;;;6.10;99.90;;;;;;2096688;28;20052;-69
2023/05/08 03:27:13;;;;;;;16.40;13.73;;;6.10;99.90;;;;;;2088228;28;20065;-70
2023/05/08 03:28:16;;;;;;;17.50;14.20;;;6.10;99.90;;;;;;2100177;28;20039;-69
2023/05/08 03:29:17;;;;;;;19.15;14.38;;;6.10;99.90;;;;;;2099120;28;20184;-69
2023/05/08 03:30:19;;;;;;;17.27;14.18;;;6.10;99.90;;;;;;2089694;28;20020;-69
2023/05/08 03:31:31;;;;;;;18.13;14.07;;;6.10;99.90;;;;;;2088761;28;20036;-69
2023/05/08 03:32:34;;;;;;;18.80;14.40;;;6.10;99.90;;;;;;2091605;28;20101;-69
2023/05/08 03:33:37;;;;;;;18.80;14.60;;;6.10;99.90;;;;;;2098601;28;20028;-69
2023/05/08 03:34:39;;;;;;;19.35;14.90;;;6.10;99.90;;;;;;2091256;28;20024;-70
2023/05/08 03:35:41;;;;;;;19.00;15.02;;;6.10;99.90;;;;;;2087411;28;20031;-69
2023/05/08 03:36:44;;;;;;;18.75;14.95;;;6.10;99.90;;;;;;2082750;28;20036;-69
2023/05/08 03:37:44;;;;;;;19.83;14.13;;;6.10;99.90;;;;;;2099809;28;20083;-69
2023/05/08 03:38:45;;;;;;;17.92;14.02;;;6.10;99.90;;;;;;2096475;28;20377;-69
2023/05/08 03:39:46;;;;;;;17.45;13.95;;;6.20;99.90;;;;;;2096310;28;20530;-69
2023/05/08 03:40:48;;;;;;;17.33;14.32;;;6.10;99.90;;;;;;2097322;28;20590;-68
2023/05/08 03:41:48;;;;;;;18.05;14.02;;;6.10;99.90;;;;;;2092818;28;20029;-69
2023/05/08 03:42:50;;;;;;;18.52;14.05;;;6.10;99.90;;;;;;2091604;28;20467;-69
2023/05/08 03:43:51;;;;;;;17.88;14.52;;;6.20;99.90;;;;;;2083393;28;20392;-69
2023/05/08 03:44:53;;;;;;;19.13;14.43;;;6.10;99.90;;;;;;2082498;28;20029;-68
2023/05/08 03:45:55;;;;;;;16.50;13.95;;;6.10;99.90;;;;;;2084153;28;20020;-69
2023/05/08 03:46:57;;;;;;;18.92;15.20;;;6.10;99.90;;;;;;2086136;28;20029;-69
2023/05/08 03:47:59;;;;;;;16.77;14.23;;;6.20;99.90;;;;;;2091759;28;20386;-68
2023/05/08 03:49:06;;;;;;;15.95;13.95;;;6.20;99.90;;;;;;2092180;28;20466;-71
2023/05/08 03:50:08;;;;;;;16.15;13.68;;;6.20;99.90;;;;;;2097062;28;20148;-69
2023/05/08 03:51:09;;;;;;;16.95;13.70;;;6.20;99.90;;;;;;2093182;28;20047;-69
2023/05/08 03:52:15;;;;;;;16.90;13.68;;;6.20;99.90;;;;;;2086555;28;20024;-69
2023/05/08 03:53:16;;;;;;;19.58;14.13;;;6.20;99.90;;;;;;2082887;28;20040;-69
2023/05/08 03:54:16;;;;;;;16.55;13.65;;;6.20;99.90;;;;;;2099164;28;20024;-69
2023/05/08 03:55:18;;;;;;;16.38;13.18;;;6.20;99.90;;;;;;2101186;28;20078;-69
2023/05/08 03:56:19;;;;;;;16.80;13.57;;;6.20;99.90;;;;;;2085461;28;20059;-69
2023/05/08 03:57:21;;;;;;;16.13;13.63;;;6.20;99.90;;;;;;2088125;28;20078;-68
2023/05/08 03:58:34;;;;;;;16.08;13.55;;;6.20;99.90;;;;;;2104243;28;20039;-69
2023/05/08 03:59:47;;;;;;;16.92;13.85;;;6.30;99.90;;;;;;2088579;28;20024;-69
2023/05/08 04:01:04;;;;;;;17.60;14.32;;;6.30;99.90;;;;;;2097760;28;20533;-69
2023/05/08 04:02:17;;;;;;;16.90;13.80;;;6.30;99.90;;;;;;2091213;28;20037;-68
2023/05/08 04:03:46;;;;;;;16.00;13.38;;;6.30;99.90;;;;;;2084687;28;20048;-68
2023/05/08 04:05:04;;;;;;;18.33;14.20;;;6.30;99.90;;;;;;2092519;28;20039;-70
2023/05/08 04:06:47;;;;;;;15.82;13.30;;;6.40;99.90;;;;;;2096726;28;20024;-68
2023/05/08 04:08:14;;;;;;;16.08;13.77;;;6.40;99.90;;;;;;2095752;28;20055;-68
2023/05/08 04:09:34;;;;;;;16.60;12.85;;;6.40;99.90;;;;;;2094570;28;20186;-69
2023/05/08 04:10:56;;;;;;;16.00;13.38;;;6.50;99.90;;;;;;2090928;28;20028;-68
2023/05/08 04:12:10;;;;;;;17.08;13.75;;;6.50;99.90;;;;;;2090230;28;20782;-71
2023/05/08 04:13:21;;;;;;;16.52;13.63;;;6.50;99.90;;;;;;2095025;28;20036;-70
2023/05/08 04:14:26;;;;;;;16.60;13.40;;;6.60;99.90;;;;;;2096614;28;20031;-69
2023/05/08 04:15:30;;;;;;;16.10;12.77;;;6.90;99.90;;;;;;2096266;28;20181;-70
2023/05/08 04:16:38;;;;;;;14.55;11.98;;;7.20;99.90;;;;;;2090757;28;20402;-70
2023/05/08 04:17:46;;;;;;;14.75;11.73;;;7.70;99.90;;;;;;2089535;28;20060;-70
2023/05/08 04:18:51;;;;;;;14.02;10.88;;;8.10;99.90;;;;;;2091864;28;20054;-70
2023/05/08 04:19:59;;;;;;;13.80;11.10;;;8.60;99.90;;;;;;2092732;28;20032;-70
2023/05/08 04:21:02;;;;;;;12.40;10.43;;;9.00;99.90;;;;;;2089304;28;20039;-70
2023/05/08 04:22:06;;;;;;;13.10;10.55;;;9.40;99.90;;;;;;2088259;28;20692;-69
2023/05/08 04:23:08;;;;;;;14.70;10.10;;;9.60;99.90;;;;;;2094212;28;20025;-69
2023/05/08 04:24:12;;;;;;;12.55;10.52;;;9.80;99.90;;;;;;2101225;28;20012;-69
2023/05/08 04:25:16;;;;;;;11.95;9.88;;;10.00;99.90;;;;;;2097279;28;20032;-68
2023/05/08 04:26:18;;;;;;;11.52;9.77;;;10.10;99.90;;;;;;2094687;28;20130;-68
2023/05/08 04:27:21;;;;;;;11.32;10.05;;;10.20;99.90;;;;;;2097406;28;20483;-68
2023/05/08 04:28:22;;;;;;;11.82;10.05;;;10.20;99.90;;;;;;2090995;28;20577;-68
2023/05/08 04:29:23;;;;;;;11.68;10.35;;;10.30;99.90;;;;;;2082733;28;20067;-69
2023/05/08 04:30:25;;;;;;;11.13;9.57;;;10.30;99.90;;;;;;2076609;28;20096;-69
2023/05/08 04:31:28;;;;;;;10.57;9.48;;;10.50;99.90;;;;;;2093900;28;20585;-69
2023/05/08 04:32:30;;;;;;;11.82;9.82;;;10.70;99.90;;;;;;2088849;28;20030;-69
2023/05/08 04:33:32;;;;;;;11.30;9.63;;;10.90;99.90;;;;;;2103523;28;20136;-68
2023/05/08 04:34:33;;;;;;;10.32;9.07;;;11.10;99.90;;;;;;2101368;28;20050;-69
2023/05/08 04:35:33;;;;;;;11.88;9.35;;;11.30;99.90;;;;;;2094639;28;20085;-69
2023/05/08 04:36:34;;;;;;;11.38;9.48;;;11.60;99.90;;;;;;2090877;28;20101;-70
2023/05/08 04:37:36;;;;;;;10.60;9.40;;;11.80;99.90;;;;;;2090926;28;20028;-69
2023/05/08 04:38:37;;;;;;;11.15;9.05;;;12.00;99.90;;;;;;2092924;28;20521;-69
2023/05/08 04:39:38;;;;;;;10.77;9.30;;;12.20;99.90;;;;;;2099195;28;20020;-70
2023/05/08 04:40:39;;;;;;;10.25;8.82;;;12.40;99.90;;;;;;2099370;28;20107;-69
2023/05/08 04:41:40;;;;;;;9.82;8.82;;;12.60;99.90;;;;;;2097674;28;20031;-68
2023/05/08 04:42:42;;;;;;;9.75;8.75;;;12.80;99.90;;;;;;2098555;28;20114;-69
2023/05/08 04:43:43;;;;;;;9.43;8.38;;;13.00;99.90;;;;;;2098473;28;20506;-69
2023/05/08 04:44:43;;;;;;;9.63;8.40;;;13.10;99.90;;;;;;2100953;28;20039;-69
2023/05/08 04:45:44;;;;;;;51.15;38.25;;;13.20;99.90;;;;;;2090662;28;20032;-70
2023/05/08 04:46:45;;;;;;;19.38;16.10;;;13.40;99.90;;;;;;2092287;28;20459;-69
2023/05/08 04:47:45;;;;;;;11.52;10.23;;;13.50;99.90;;;;;;2097413;28;20038;-69
2023/05/08 04:48:46;;;;;;;11.70;9.80;;;13.50;99.90;;;;;;2101021;28;20044;-69
2023/05/08 04:49:46;;;;;;;9.85;8.60;;;13.60;99.90;;;;;;2083279;28;20500;-70
2023/05/08 04:50:47;;;;;;;10.52;8.60;;;13.60;99.90;;;;;;2092450;28;20024;-69
2023/05/08 04:51:48;;;;;;;9.80;8.65;;;13.60;99.90;;;;;;2099832;28;20030;-69
2023/05/08 04:52:48;;;;;;;10.77;8.88;;;13.70;99.90;;;;;;2100373;28;20053;-69
2023/05/08 04:53:49;;;;;;;9.10;8.20;;;13.70;99.90;;;;;;2096178;28;20422;-70
2023/05/08 04:54:50;;;;;;;8.60;7.70;;;13.80;99.90;;;;;;2092797;28;20059;-69
2023/05/08 04:55:51;;;;;;;11.30;9.40;;;14.00;98.90;;;;;;2088795;28;20025;-69
2023/05/08 04:56:52;;;;;;;11.18;9.35;;;14.10;98.40;;;;;;2096116;28;20032;-70
2023/05/08 04:57:53;;;;;;;10.52;8.73;;;14.20;98.00;;;;;;2090364;28;20147;-70
2023/05/08 04:58:53;;;;;;;8.55;7.65;;;14.20;97.10;;;;;;2100506;28;20142;-69
2023/05/08 04:59:55;;;;;;;9.90;7.97;;;14.20;96.10;;;;;;2097157;28;20089;-70
2023/05/08 05:00:56;;;;;;;9.02;7.30;;;14.20;94.10;;;;;;2098947;28;20020;-69
2023/05/08 05:01:57;;;;;;;9.77;7.65;;;14.20;94.80;;;;;;2090354;28;20066;-70
2023/05/08 05:02:57;;;;;;;15.05;12.35;;;14.20;94.90;;;;;;2092331;28;20036;-70
2023/05/08 05:03:58;;;;;;;10.40;9.20;;;14.20;94.20;;;;;;2093166;28;20700;-70
2023/05/08 05:05:00;;;;;;;11.55;8.07;;;14.20;94.10;;;;;;2088945;28;20063;-69
2023/05/08 05:06:01;;;;;;;8.75;7.85;;;14.30;93.80;;;;;;2088895;28;20075;-68
2023/05/08 05:07:02;;;;;;;10.40;9.30;;;14.40;93.20;;;;;;2092320;28;20028;-69
2023/05/08 05:08:03;;;;;;;8.65;7.82;;;14.40;93.20;;;;;;2090469;28;20040;-69
2023/05/08 05:09:04;;;;;;;9.63;7.78;;;14.30;93.00;;;;;;2095568;28;20043;-69
2023/05/08 05:10:05;;;;;;;9.48;8.05;;;14.40;93.00;;;;;;2081771;28;20053;-69
2023/05/08 05:11:09;;;;;;;8.45;7.60;;;14.40;92.50;;;;;;2091950;28;20039;-70
2023/05/08 05:12:09;;;;;;;8.48;7.68;;;14.50;92.50;;;;;;2100105;28;20031;-70
2023/05/08 05:13:10;;;;;;;9.73;7.28;;;14.40;92.40;;;;;;2095782;28;20028;-69
2023/05/08 05:14:10;;;;;;;10.63;7.80;;;14.50;91.50;;;;;;2086864;28;20041;-68
2023/05/08 05:15:11;;;;;;;8.32;7.50;;;14.60;91.20;;;;;;2092131;28;20029;-70
2023/05/08 05:16:13;;;;;;;7.97;7.18;;;14.50;91.10;;;;;;2100652;28;20049;-70
2023/05/08 05:17:13;;;;;;;8.60;7.70;;;14.60;91.80;;;;;;2090950;28;20024;-69
2023/05/08 05:18:14;;;;;;;7.50;6.70;;;14.70;91.30;;;;;;2075421;28;20029;-69
2023/05/08 05:19:15;;;;;;;11.82;9.25;;;14.80;90.80;;;;;;2076391;28;20030;-70
2023/05/08 05:20:15;;;;;;;9.10;7.50;;;14.90;90.00;;;;;;2090238;28;20481;-70
2023/05/08 05:21:17;;;;;;;8.10;7.30;;;14.90;90.00;;;;;;2091168;28;20035;-69
2023/05/08 05:22:18;;;;;;;7.70;6.60;;;14.90;88.80;;;;;;2086562;28;20113;-69
2023/05/08 05:23:19;;;;;;;7.57;6.60;;;15.00;88.50;;;;;;2092460;28;20024;-70
2023/05/08 05:24:19;;;;;;;8.80;7.00;;;15.00;88.20;;;;;;2088833;28;20027;-68
2023/05/08 05:25:20;;;;;;;8.15;6.72;;;15.00;86.80;;;;;;2093401;28;20060;-68
2023/05/08 05:26:20;;;;;;;7.18;6.47;;;15.00;86.90;;;;;;2088680;28;20040;-68
2023/05/08 05:27:21;;;;;;;8.43;6.93;;;15.10;85.70;;;;;;2091998;28;20071;-68
2023/05/08 05:28:22;;;;;;;8.05;6.65;;;15.10;85.20;;;;;;2081782;28;20103;-68
2023/05/08 05:29:23;;;;;;;7.00;6.30;;;15.00;85.60;;;;;;2083127;28;20511;-68
2023/05/08 05:30:24;;;;;;;8.00;5.93;;;15.20;85.70;;;;;;2094379;28;20443;-68
2023/05/08 05:31:24;;;;;;;7.63;6.82;;;15.40;85.70;;;;;;2091837;28;20028;-68
2023/05/08 05:32:25;;;;;;;8.15;6.70;;;15.50;85.30;;;;;;2092402;28;20051;-69
2023/05/08 05:33:26;;;;;;;7.07;6.38;;;15.50;83.60;;;;;;2085231;28;20541;-68